Time;durP1;ratioP1;P1;durP2;ratioP2;P2;SDS_P1;SDS_P2;PMS_P1;PMS_P2;Temp;Humidity;BMP_temperature;BMP_pressure;BME280_temperature;BME280_humidity;BME280_pressure;Samples;Min_cycle;Max_cycle;Signal;HPM_P1;HPM_P2
2023/12/15 00:04:09;;;;;;;40.00;24.13;;;3.40;99.90;;;;;;10365982;28;20263;-78
2023/12/15 00:09:12;;;;;;;34.60;23.43;;;3.50;99.90;;;;;;10375239;28;20253;-78
2023/12/15 00:14:14;;;;;;;31.10;20.30;;;3.00;99.90;;;;;;10406205;28;20298;-79
2023/12/15 00:19:17;;;;;;;35.23;21.67;;;2.80;99.90;;;;;;10407151;28;20618;-79
2023/12/15 00:24:19;;;;;;;25.63;16.57;;;3.00;99.90;;;;;;10405045;28;20259;-78
2023/12/15 00:29:23;;;;;;;24.67;16.17;;;3.60;99.90;;;;;;10391378;28;20254;-78
2023/12/15 00:34:25;;;;;;;25.47;16.37;;;4.10;99.90;;;;;;10365011;28;20279;-78
2023/12/15 00:39:30;;;;;;;21.33;13.97;;;4.80;99.90;;;;;;10366355;28;20297;-78
2023/12/15 00:44:33;;;;;;;20.77;15.03;;;5.50;99.90;;;;;;10391027;28;20293;-78
2023/12/15 00:49:36;;;;;;;27.47;15.93;;;5.60;99.90;;;;;;10375135;28;20291;-78
2023/12/15 00:54:38;;;;;;;25.30;16.30;;;5.50;99.90;;;;;;10363457;28;20298;-78
2023/12/15 00:59:41;;;;;;;23.17;15.53;;;5.30;99.90;;;;;;10373075;28;20231;-78
2023/12/15 01:04:43;;;;;;;20.87;14.03;;;5.10;99.90;;;;;;10392952;28;20261;-79
2023/12/15 01:09:46;;;;;;;20.63;13.23;;;5.10;99.90;;;;;;10385991;28;20232;-78
2023/12/15 01:14:49;;;;;;;16.43;11.87;;;4.90;99.90;;;;;;10372387;28;20298;-78
2023/12/15 01:19:51;;;;;;;22.10;14.33;;;5.00;99.90;;;;;;10362601;28;20230;-78
2023/12/15 01:24:54;;;;;;;20.13;12.20;;;5.00;99.90;;;;;;10372007;28;20251;-78
2023/12/15 01:29:56;;;;;;;17.43;12.77;;;4.90;99.90;;;;;;10370624;28;20223;-78
2023/12/15 01:34:59;;;;;;;23.30;14.70;;;4.90;99.90;;;;;;10370325;28;20724;-78
2023/12/15 01:40:02;;;;;;;24.90;15.00;;;5.20;99.90;;;;;;10370415;28;20223;-78
2023/12/15 01:45:06;;;;;;;20.63;13.47;;;5.10;99.90;;;;;;10371248;28;20260;-78
2023/12/15 01:50:08;;;;;;;22.80;13.67;;;4.80;99.90;;;;;;10374473;28;20281;-79
2023/12/15 01:55:11;;;;;;;22.77;13.53;;;4.70;99.90;;;;;;10370060;28;20286;-78
2023/12/15 02:00:13;;;;;;;18.67;12.80;;;4.70;99.90;;;;;;10370115;28;20232;-78
2023/12/15 02:05:16;;;;;;;19.67;12.93;;;4.50;99.90;;;;;;10369189;28;20293;-78
2023/12/15 02:10:18;;;;;;;17.20;11.07;;;4.40;99.90;;;;;;10368241;28;20289;-79
2023/12/15 02:15:21;;;;;;;13.00;9.80;;;4.40;99.90;;;;;;10370323;28;20675;-78
2023/12/15 02:20:24;;;;;;;20.20;12.47;;;5.10;99.90;;;;;;10368636;28;20421;-78
2023/12/15 02:25:26;;;;;;;17.10;11.27;;;5.20;99.90;;;;;;10372146;28;20250;-78
2023/12/15 02:30:29;;;;;;;16.17;10.40;;;5.70;99.90;;;;;;10368197;28;20650;-78
2023/12/15 02:35:31;;;;;;;20.27;11.97;;;5.80;99.90;;;;;;10369718;28;20652;-78
2023/12/15 02:40:38;;;;;;;17.10;10.83;;;6.30;99.90;;;;;;10367182;28;20239;-78
2023/12/15 02:45:40;;;;;;;15.23;10.27;;;6.40;99.90;;;;;;10368123;28;20636;-78
2023/12/15 02:50:43;;;;;;;17.73;11.93;;;6.80;99.90;;;;;;10367159;28;20224;-78
2023/12/15 02:55:45;;;;;;;15.03;10.47;;;6.60;99.90;;;;;;10379299;28;20231;-78
2023/12/15 03:00:48;;;;;;;18.33;11.90;;;6.60;99.90;;;;;;10328102;28;20276;-79
2023/12/15 03:05:50;;;;;;;15.60;11.10;;;6.60;99.90;;;;;;10327402;28;20307;-78
2023/12/15 03:10:57;;;;;;;15.47;11.23;;;6.90;99.90;;;;;;10343228;28;20277;-78
2023/12/15 03:16:06;;;;;;;16.37;11.57;;;6.20;99.90;;;;;;10407865;28;20611;-79
2023/12/15 03:21:09;;;;;;;14.33;9.17;;;6.20;99.90;;;;;;10391986;28;20294;-78
2023/12/15 03:26:12;;;;;;;12.93;8.57;;;6.50;99.90;;;;;;10345682;28;20252;-78
2023/12/15 03:31:14;;;;;;;18.60;9.07;;;6.50;99.90;;;;;;10401446;28;20279;-78
2023/12/15 03:36:17;;;;;;;18.27;11.23;;;6.50;99.90;;;;;;10408646;28;20297;-78
2023/12/15 03:41:19;;;;;;;13.30;10.23;;;6.60;99.90;;;;;;10407186;28;20796;-78
2023/12/15 03:46:22;;;;;;;14.33;10.63;;;6.80;99.90;;;;;;10399397;28;20260;-78
2023/12/15 03:51:24;;;;;;;11.37;8.43;;;6.70;99.90;;;;;;10326803;28;20263;-78
2023/12/15 03:56:27;;;;;;;14.27;10.00;;;6.30;99.90;;;;;;10364183;28;20246;-78
2023/12/15 04:01:29;;;;;;;16.23;10.00;;;6.40;99.90;;;;;;10406262;28;20657;-78
2023/12/15 04:06:32;;;;;;;16.77;10.50;;;6.40;99.90;;;;;;10346937;28;20248;-78
2023/12/15 04:11:37;;;;;;;16.10;9.97;;;6.90;99.90;;;;;;10375588;28;20228;-78
2023/12/15 04:16:41;;;;;;;12.83;9.57;;;7.40;99.90;;;;;;10378227;28;20227;-78
2023/12/15 04:21:43;;;;;;;20.93;14.40;;;7.10;99.90;;;;;;10400543;28;20601;-79
2023/12/15 04:26:46;;;;;;;19.90;13.43;;;7.10;99.90;;;;;;10401855;28;20948;-79
2023/12/15 04:31:48;;;;;;;13.07;9.77;;;6.90;99.90;;;;;;10414490;28;20242;-79
2023/12/15 04:36:51;;;;;;;18.10;12.10;;;7.30;99.90;;;;;;10358870;28;20293;-78
2023/12/15 04:41:53;;;;;;;12.10;8.10;;;6.90;99.90;;;;;;10333521;28;20275;-78
2023/12/15 04:46:56;;;;;;;10.97;8.00;;;6.70;99.90;;;;;;10353160;28;20287;-78
2023/12/15 04:51:59;;;;;;;12.43;8.90;;;7.00;99.90;;;;;;10398540;28;20255;-79
2023/12/15 04:57:02;;;;;;;15.13;9.37;;;7.00;99.90;;;;;;10373549;28;20239;-79
2023/12/15 05:02:04;;;;;;;13.00;8.93;;;6.90;99.90;;;;;;10373548;28;20234;-79
2023/12/15 05:07:07;;;;;;;11.93;8.03;;;7.60;99.90;;;;;;10354587;28;20252;-79
2023/12/15 05:12:09;;;;;;;15.77;10.57;;;7.10;99.90;;;;;;10332489;28;20240;-78
2023/12/15 05:17:12;;;;;;;12.83;9.13;;;6.90;99.90;;;;;;10332838;28;20305;-79
2023/12/15 05:22:14;;;;;;;12.20;8.77;;;6.90;99.90;;;;;;10355840;28;20269;-79
2023/12/15 05:27:17;;;;;;;14.97;9.77;;;6.50;99.90;;;;;;10362211;28;20264;-79
2023/12/15 05:32:19;;;;;;;15.23;8.97;;;6.00;99.90;;;;;;10380343;28;20279;-79
2023/12/15 05:37:22;;;;;;;13.30;9.50;;;5.90;99.90;;;;;;10369323;28;20862;-79
2023/12/15 05:42:25;;;;;;;14.77;10.03;;;6.00;99.90;;;;;;10402498;28;20384;-79
2023/12/15 05:47:27;;;;;;;17.30;9.07;;;5.90;99.90;;;;;;10360191;28;20791;-79
2023/12/15 05:52:30;;;;;;;31.50;15.50;;;6.00;99.90;;;;;;10395937;28;20596;-79
2023/12/15 05:57:33;;;;;;;23.43;12.57;;;6.20;99.90;;;;;;10399688;28;20226;-79
2023/12/15 06:02:35;;;;;;;14.67;8.67;;;6.10;99.90;;;;;;10410365;28;20282;-79
2023/12/15 06:07:39;;;;;;;16.30;10.03;;;5.90;99.90;;;;;;10383760;28;20289;-79
2023/12/15 06:12:42;;;;;;;10.97;8.63;;;5.70;99.90;;;;;;10390794;28;20226;-79
2023/12/15 06:17:44;;;;;;;19.23;10.27;;;5.30;99.90;;;;;;10403357;28;20297;-79
2023/12/15 06:22:47;;;;;;;26.17;14.43;;;4.90;99.90;;;;;;10411168;28;20231;-79
2023/12/15 06:27:53;;;;;;;28.83;14.93;;;4.60;99.90;;;;;;10395709;28;20246;-79
2023/12/15 06:32:56;;;;;;;20.07;12.77;;;4.40;99.90;;;;;;10407003;28;20776;-79
2023/12/15 06:37:59;;;;;;;15.03;11.37;;;4.20;99.90;;;;;;10368657;28;20267;-79
2023/12/15 06:43:02;;;;;;;20.50;12.10;;;4.10;99.90;;;;;;10368868;28;20250;-79
2023/12/15 06:48:04;;;;;;;19.23;10.80;;;4.10;99.90;;;;;;10344842;28;20260;-79
2023/12/15 06:53:07;;;;;;;11.17;9.10;;;4.20;99.90;;;;;;10387050;28;20928;-79
2023/12/15 06:58:09;;;;;;;16.37;10.90;;;4.40;99.90;;;;;;10397097;28;20249;-79
2023/12/15 07:03:12;;;;;;;14.37;9.83;;;4.40;99.90;;;;;;10366384;28;20941;-79
2023/12/15 07:08:14;;;;;;;14.70;9.30;;;4.30;99.90;;;;;;10366567;28;20329;-80
2023/12/15 07:13:17;;;;;;;11.97;8.10;;;4.50;99.90;;;;;;10396635;28;20234;-79
2023/12/15 07:18:19;;;;;;;14.17;9.03;;;4.70;99.90;;;;;;10390513;28;20221;-79
2023/12/15 07:23:22;;;;;;;15.77;10.77;;;5.10;99.90;;;;;;10345740;28;20625;-79
2023/12/15 07:28:24;;;;;;;12.53;9.40;;;5.20;99.90;;;;;;10364468;28;20948;-79
2023/12/15 07:33:27;;;;;;;20.30;11.57;;;4.70;99.90;;;;;;10385666;28;20226;-79
2023/12/15 07:38:30;;;;;;;18.50;11.77;;;4.50;99.90;;;;;;10338363;28;20287;-79
2023/12/15 07:43:33;;;;;;;20.67;12.40;;;4.30;99.90;;;;;;10400454;28;20692;-78
2023/12/15 07:48:35;;;;;;;16.37;12.00;;;4.30;99.90;;;;;;10372243;28;20255;-79
2023/12/15 07:53:38;;;;;;;31.27;13.10;;;4.50;99.90;;;;;;10374907;28;20231;-79
2023/12/15 07:58:41;;;;;;;15.63;8.23;;;3.80;99.90;;;;;;10375722;28;20343;-79
2023/12/15 08:03:43;;;;;;;15.80;10.50;;;4.50;99.90;;;;;;10367271;28;20294;-79
2023/12/15 08:08:47;;;;;;;9.37;6.77;;;5.50;99.90;;;;;;10358177;28;20635;-79
2023/12/15 08:13:50;;;;;;;13.30;8.23;;;6.20;99.90;;;;;;10406990;28;20256;-80
2023/12/15 08:18:52;;;;;;;10.03;6.33;;;6.90;99.90;;;;;;10407638;28;20677;-79
2023/12/15 08:23:55;;;;;;;25.50;11.70;;;7.50;99.90;;;;;;10396534;28;20290;-80
2023/12/15 08:28:57;;;;;;;8.83;6.20;;;7.10;99.90;;;;;;10375443;28;20631;-79
2023/12/15 08:34:00;;;;;;;22.23;13.20;;;7.10;99.90;;;;;;10382256;28;20232;-80
2023/12/15 08:39:03;;;;;;;11.03;5.87;;;6.20;99.90;;;;;;10364485;28;20693;-80
2023/12/15 08:44:06;;;;;;;12.23;9.07;;;8.00;99.90;;;;;;10381950;28;20269;-79
2023/12/15 08:49:20;;;;;;;20.93;13.77;;;8.10;99.90;;;;;;10405710;28;20274;-79
2023/12/15 08:54:23;;;;;;;22.53;13.30;;;7.10;99.90;;;;;;10404873;28;20239;-80
2023/12/15 08:59:26;;;;;;;18.67;10.90;;;6.80;99.90;;;;;;10372681;28;20290;-79
2023/12/15 09:04:28;;;;;;;12.90;7.37;;;6.50;99.90;;;;;;10402950;28;20226;-80
2023/12/15 09:09:31;;;;;;;18.60;9.10;;;6.60;99.90;;;;;;10375196;28;20271;-80
2023/12/15 09:14:33;;;;;;;10.60;9.20;;;6.60;99.90;;;;;;10371758;28;20232;-80
2023/12/15 09:19:35;;;;;;;9.23;6.30;;;7.30;99.90;;;;;;10378884;28;20263;-79
2023/12/15 09:24:38;;;;;;;19.00;11.90;;;8.20;99.90;;;;;;10373091;28;20227;-80
2023/12/15 09:29:41;;;;;;;14.27;10.03;;;8.40;99.90;;;;;;10395465;28;20620;-79
2023/12/15 09:34:43;;;;;;;8.00;6.43;;;8.80;99.90;;;;;;10370436;28;20263;-80
2023/12/15 09:39:46;;;;;;;7.70;5.70;;;8.60;99.90;;;;;;10364616;28;20239;-80
2023/12/15 09:44:48;;;;;;;17.93;8.97;;;8.70;99.90;;;;;;10402411;28;20285;-79
2023/12/15 09:50:11;;;;;;;8.70;5.17;;;9.00;99.90;;;;;;10368572;28;20817;-79
2023/12/15 09:55:14;;;;;;;12.60;8.20;;;9.20;99.90;;;;;;10396933;28;20697;-79
2023/12/15 10:00:17;;;;;;;7.13;5.43;;;9.70;99.90;;;;;;10375894;28;20247;-79
2023/12/15 10:05:21;;;;;;;6.90;4.73;;;9.60;99.90;;;;;;10368116;28;20252;-79
2023/12/15 10:10:26;;;;;;;10.80;4.93;;;9.80;99.90;;;;;;10365275;28;20719;-79
2023/12/15 10:15:29;;;;;;;15.77;12.50;;;9.90;99.90;;;;;;10340071;28;20311;-79
2023/12/15 10:20:38;;;;;;;17.55;12.52;;;9.20;99.90;;;;;;10177306;28;10000415;-79
2023/12/15 10:25:48;;;;;;;18.77;12.23;;;6.80;99.90;;;;;;10366001;28;21237;-79
2023/12/15 10:30:51;;;;;;;17.53;12.03;;;5.10;99.90;;;;;;10395953;28;20235;-79
2023/12/15 10:35:53;;;;;;;14.33;8.33;;;5.80;99.90;;;;;;10406937;28;20640;-79
2023/12/15 10:40:57;;;;;;;17.33;9.40;;;7.80;99.90;;;;;;10373918;28;20283;-80
2023/12/15 10:46:02;;;;;;;20.70;8.77;;;9.10;99.90;;;;;;10339064;28;20271;-79
2023/12/15 10:51:08;;;;;;;19.03;9.00;;;9.30;99.90;;;;;;10362548;28;20651;-79
2023/12/15 10:56:11;;;;;;;18.13;10.43;;;9.50;99.90;;;;;;10364736;28;20268;-79
2023/12/15 11:01:16;;;;;;;14.27;9.37;;;9.20;99.90;;;;;;10366867;28;20262;-80
2023/12/15 11:06:34;;;;;;;15.40;8.70;;;9.10;99.90;;;;;;10363606;28;20254;-79
2023/12/15 11:11:37;;;;;;;17.83;9.87;;;9.50;99.90;;;;;;10364293;28;20278;-79
2023/12/15 11:16:41;;;;;;;15.33;10.13;;;9.40;99.90;;;;;;10374090;28;20240;-79
2023/12/15 11:21:44;;;;;;;14.67;7.87;;;9.10;99.90;;;;;;10371979;28;20690;-79
2023/12/15 11:26:49;;;;;;;10.10;5.33;;;9.30;99.90;;;;;;10367501;28;20251;-80
2023/12/15 11:31:54;;;;;;;11.37;8.60;;;9.60;99.90;;;;;;10366331;28;20301;-79
2023/12/15 11:36:57;;;;;;;8.23;5.10;;;9.90;99.90;;;;;;10365370;28;20235;-79
2023/12/15 11:42:00;;;;;;;10.23;7.10;;;10.30;99.90;;;;;;10368150;28;20230;-79
2023/12/15 11:47:04;;;;;;;12.43;6.57;;;10.80;99.90;;;;;;10367891;28;20799;-80
2023/12/15 11:52:12;;;;;;;12.77;7.27;;;10.70;99.90;;;;;;10365821;28;20710;-79
2023/12/15 11:57:16;;;;;;;15.47;6.27;;;10.20;99.90;;;;;;10380050;28;20273;-80
2023/12/15 12:02:18;;;;;;;14.87;9.93;;;9.80;99.90;;;;;;10370383;28;20766;-79
2023/12/15 12:07:21;;;;;;;13.23;8.47;;;9.80;99.90;;;;;;10364605;28;20274;-79
2023/12/15 12:12:24;;;;;;;12.40;8.80;;;9.60;99.90;;;;;;10367152;28;20277;-79
2023/12/15 12:17:26;;;;;;;15.93;10.13;;;9.60;99.90;;;;;;10362588;28;20274;-79
2023/12/15 12:22:33;;;;;;;11.43;6.90;;;9.50;99.90;;;;;;10364948;28;20224;-79
2023/12/15 12:27:36;;;;;;;10.80;6.67;;;9.80;99.90;;;;;;10366827;28;20297;-78
2023/12/15 12:32:40;;;;;;;13.47;7.83;;;10.20;99.90;;;;;;10363364;28;20606;-79
2023/12/15 12:37:43;;;;;;;6.40;4.27;;;10.40;99.90;;;;;;10366285;28;20236;-79
2023/12/15 12:42:46;;;;;;;16.50;9.43;;;10.40;99.90;;;;;;10373494;28;20228;-79
2023/12/15 12:47:49;;;;;;;15.50;10.60;;;10.30;99.90;;;;;;10371609;28;20259;-79
2023/12/15 12:52:52;;;;;;;9.83;6.10;;;9.80;99.90;;;;;;10370709;28;20216;-79
2023/12/15 12:58:00;;;;;;;13.40;9.30;;;9.70;99.90;;;;;;10370946;28;20731;-79
2023/12/15 13:03:04;;;;;;;10.80;5.50;;;9.50;99.90;;;;;;10370679;28;20673;-79
2023/12/15 13:08:08;;;;;;;12.57;6.97;;;10.10;99.90;;;;;;10373671;28;20255;-79
2023/12/15 13:13:12;;;;;;;11.53;8.03;;;10.40;99.90;;;;;;10370669;28;20232;-79
2023/12/15 13:18:16;;;;;;;8.77;4.67;;;10.80;99.90;;;;;;10372129;28;20224;-79
2023/12/15 13:23:22;;;;;;;10.03;5.70;;;11.20;99.90;;;;;;10372874;28;20236;-79
2023/12/15 13:28:27;;;;;;;7.37;5.23;;;11.10;99.90;;;;;;10374138;28;20286;-79
2023/12/15 13:33:30;;;;;;;8.17;5.70;;;11.20;99.90;;;;;;10369790;28;20224;-79
2023/12/15 13:38:32;;;;;;;7.30;4.53;;;10.70;99.90;;;;;;10367264;28;20278;-79
2023/12/15 13:43:37;;;;;;;8.83;6.27;;;11.00;99.90;;;;;;10374924;28;20323;-79
2023/12/15 13:48:39;;;;;;;9.30;6.30;;;11.20;99.90;;;;;;10388564;28;20278;-79
2023/12/15 13:53:42;;;;;;;8.70;5.43;;;11.10;99.90;;;;;;10385144;28;20286;-79
2023/12/15 13:58:45;;;;;;;4.93;3.13;;;11.20;99.90;;;;;;10382414;28;20236;-79
2023/12/15 14:03:47;;;;;;;9.90;5.97;;;10.40;99.90;;;;;;10382555;28;21008;-78
2023/12/15 14:08:50;;;;;;;5.93;4.03;;;10.60;99.90;;;;;;10390564;28;20349;-79
2023/12/15 14:13:54;;;;;;;13.67;8.90;;;11.30;99.90;;;;;;10388905;28;20298;-79
2023/12/15 14:18:57;;;;;;;10.87;8.17;;;11.40;99.90;;;;;;10381466;28;20239;-79
2023/12/15 14:23:59;;;;;;;11.60;6.53;;;10.90;99.90;;;;;;10364851;28;20294;-79
2023/12/15 14:29:03;;;;;;;7.47;5.30;;;10.80;99.90;;;;;;10367462;28;20247;-78
2023/12/15 14:34:05;;;;;;;10.07;6.53;;;11.00;99.90;;;;;;10368174;28;20287;-79
2023/12/15 14:39:08;;;;;;;6.80;4.80;;;10.60;99.90;;;;;;10368590;28;20235;-79
2023/12/15 14:44:11;;;;;;;18.47;12.27;;;10.70;99.90;;;;;;10389791;28;20246;-79
2023/12/15 14:49:14;;;;;;;9.13;6.30;;;10.10;99.90;;;;;;10402635;28;20259;-79
2023/12/15 14:54:17;;;;;;;23.17;16.73;;;9.90;99.90;;;;;;10410048;28;20227;-79
2023/12/15 14:59:25;;;;;;;12.43;8.80;;;10.10;99.90;;;;;;10408760;28;20269;-78
2023/12/15 15:04:27;;;;;;;20.00;14.33;;;10.00;99.90;;;;;;10327596;28;20241;-79
2023/12/15 15:09:30;;;;;;;17.00;11.33;;;9.30;99.90;;;;;;10356625;28;20305;-79
2023/12/15 15:14:33;;;;;;;17.77;12.23;;;9.90;99.90;;;;;;10409035;28;20687;-79
2023/12/15 15:19:36;;;;;;;8.77;5.33;;;9.10;99.90;;;;;;10402833;28;20292;-78
2023/12/15 15:24:38;;;;;;;24.27;17.37;;;8.80;99.90;;;;;;10408373;28;20280;-79
2023/12/15 15:29:41;;;;;;;7.37;3.30;;;8.40;99.90;;;;;;10404020;28;20254;-79
2023/12/15 15:34:43;;;;;;;8.90;6.40;;;8.90;99.90;;;;;;10326036;28;20263;-79
2023/12/15 15:40:01;;;;;;;9.33;6.03;;;9.00;99.90;;;;;;10326635;28;20697;-79
2023/12/15 15:45:04;;;;;;;21.23;14.53;;;9.20;99.90;;;;;;10347994;28;20232;-79
2023/12/15 15:50:07;;;;;;;18.70;11.73;;;9.50;99.90;;;;;;10331758;28;20295;-79
2023/12/15 15:55:10;;;;;;;10.87;7.13;;;10.20;99.90;;;;;;10401420;28;20235;-79
2023/12/15 16:00:13;;;;;;;25.03;16.93;;;10.00;99.90;;;;;;10405712;28;20300;-79
2023/12/15 16:05:16;;;;;;;8.53;5.43;;;9.80;99.90;;;;;;10404952;28;20268;-79
2023/12/15 16:10:19;;;;;;;11.50;7.93;;;9.20;99.90;;;;;;10365600;28;20368;-79
2023/12/15 16:15:21;;;;;;;13.97;9.00;;;9.50;99.90;;;;;;10365294;28;20265;-79
2023/12/15 16:20:24;;;;;;;26.00;11.97;;;9.70;99.90;;;;;;10370411;28;20239;-79
2023/12/15 16:25:26;;;;;;;23.47;13.87;;;10.40;99.90;;;;;;10414652;28;20269;-79
2023/12/15 16:30:29;;;;;;;24.20;13.33;;;10.20;99.90;;;;;;10415496;28;20261;-78
2023/12/15 16:35:31;;;;;;;12.03;6.80;;;10.00;99.90;;;;;;10414778;28;20260;-79
2023/12/15 16:40:34;;;;;;;20.57;11.97;;;10.20;99.90;;;;;;10415155;28;20236;-79
2023/12/15 16:45:36;;;;;;;21.93;12.57;;;10.50;99.90;;;;;;10413645;28;20305;-79
2023/12/15 16:50:39;;;;;;;11.10;6.57;;;10.40;99.90;;;;;;10414517;28;20496;-79
2023/12/15 16:55:42;;;;;;;20.63;12.73;;;10.10;99.90;;;;;;10414142;28;20285;-79
2023/12/15 17:00:45;;;;;;;20.23;8.77;;;10.40;99.90;;;;;;10412116;28;20239;-79
2023/12/15 17:05:48;;;;;;;17.93;10.77;;;10.60;99.90;;;;;;10414472;28;20285;-79
2023/12/15 17:10:51;;;;;;;13.97;8.53;;;10.70;99.90;;;;;;10414038;28;20789;-79
2023/12/15 17:15:53;;;;;;;15.00;9.53;;;11.00;99.90;;;;;;10412404;28;20621;-79
2023/12/15 17:20:56;;;;;;;23.63;10.90;;;10.90;99.90;;;;;;10402809;28;20231;-79
2023/12/15 17:25:58;;;;;;;27.10;15.23;;;11.10;99.90;;;;;;10386849;28;20270;-79
2023/12/15 17:31:02;;;;;;;24.33;14.97;;;11.30;99.90;;;;;;10370656;28;20327;-79
2023/12/15 17:36:06;;;;;;;24.10;14.13;;;11.10;99.90;;;;;;10390921;28;20273;-80
2023/12/15 17:41:09;;;;;;;16.57;10.50;;;10.90;99.90;;;;;;10371386;28;20243;-79
2023/12/15 17:46:23;;;;;;;16.97;9.27;;;10.90;99.90;;;;;;10368330;28;20321;-79
2023/12/15 17:51:26;;;;;;;14.87;6.57;;;11.20;99.90;;;;;;10398517;28;20259;-79
2023/12/15 17:56:28;;;;;;;19.00;8.90;;;11.50;99.90;;;;;;10392396;28;20285;-79
2023/12/15 18:01:32;;;;;;;9.57;5.97;;;11.70;99.90;;;;;;10400699;28;20724;-79
2023/12/15 18:06:35;;;;;;;20.47;12.37;;;11.80;99.90;;;;;;10394164;28;20261;-79
2023/12/15 18:11:39;;;;;;;23.30;13.37;;;11.40;99.90;;;;;;10397840;28;20258;-79
2023/12/15 18:16:41;;;;;;;20.20;11.53;;;11.20;99.90;;;;;;10403511;28;20220;-80
2023/12/15 18:21:44;;;;;;;19.47;12.27;;;11.10;99.90;;;;;;10378368;28;20757;-80
2023/12/15 18:26:46;;;;;;;14.87;9.17;;;10.70;99.90;;;;;;10348394;28;20237;-80
2023/12/15 18:31:49;;;;;;;17.47;11.50;;;10.50;99.90;;;;;;10372678;28;20336;-81
2023/12/15 18:36:53;;;;;;;19.23;11.43;;;10.80;99.90;;;;;;10398925;28;20255;-81
2023/12/15 18:41:55;;;;;;;23.07;14.70;;;10.90;99.90;;;;;;10391652;28;20668;-81
2023/12/15 18:46:58;;;;;;;28.20;15.30;;;10.30;99.90;;;;;;10383321;28;20259;-80
2023/12/15 18:52:00;;;;;;;22.83;12.03;;;9.40;99.90;;;;;;10374270;28;20689;-80
2023/12/15 18:57:03;;;;;;;29.87;15.00;;;10.70;99.90;;;;;;10367019;28;20238;-80
2023/12/15 19:02:06;;;;;;;28.27;15.57;;;10.80;99.90;;;;;;10368742;28;20609;-80
2023/12/15 19:07:08;;;;;;;22.10;12.43;;;10.40;99.90;;;;;;10368621;28;20247;-79
2023/12/15 19:12:11;;;;;;;19.37;10.23;;;10.60;99.90;;;;;;10367447;28;20223;-80
2023/12/15 19:17:13;;;;;;;23.33;12.67;;;10.80;99.90;;;;;;10368398;28;20232;-80
2023/12/15 19:22:16;;;;;;;8.60;5.47;;;10.70;99.90;;;;;;10366605;28;20241;-79
2023/12/15 19:27:19;;;;;;;18.83;10.53;;;11.10;99.90;;;;;;10368184;28;20273;-80
2023/12/15 19:32:21;;;;;;;15.13;10.27;;;11.20;99.90;;;;;;10367579;28;20243;-80
2023/12/15 19:37:23;;;;;;;28.27;13.80;;;11.60;99.90;;;;;;10366250;28;20290;-80
2023/12/15 19:42:29;;;;;;;16.40;9.43;;;11.10;99.90;;;;;;10367703;28;20293;-80
2023/12/15 19:47:31;;;;;;;16.63;10.80;;;10.80;99.90;;;;;;10366173;28;20263;-80
2023/12/15 19:52:34;;;;;;;17.00;9.23;;;11.10;99.90;;;;;;10367373;28;20259;-80
2023/12/15 19:57:36;;;;;;;18.13;10.80;;;10.90;99.90;;;;;;10367103;28;20682;-80
2023/12/15 20:02:40;;;;;;;16.10;9.40;;;11.30;99.90;;;;;;10366894;28;20243;-79
2023/12/15 20:07:42;;;;;;;20.30;9.03;;;11.00;99.90;;;;;;10367635;28;20263;-79
2023/12/15 20:12:44;;;;;;;16.40;10.23;;;11.30;99.90;;;;;;10366927;28;20240;-80
2023/12/15 20:17:47;;;;;;;21.97;11.23;;;11.70;99.90;;;;;;10367847;28;20236;-80
2023/12/15 20:22:50;;;;;;;23.90;10.90;;;11.30;99.90;;;;;;10367255;28;20232;-80
2023/12/15 20:27:52;;;;;;;14.87;6.57;;;11.30;99.90;;;;;;10366809;28;20263;-80
2023/12/15 20:32:55;;;;;;;12.53;7.50;;;11.00;99.90;;;;;;10366165;28;20286;-79
2023/12/15 20:37:58;;;;;;;13.87;8.43;;;11.00;99.90;;;;;;10366753;28;20648;-80
2023/12/15 20:43:01;;;;;;;7.07;5.47;;;11.10;99.90;;;;;;10367117;28;20276;-79
2023/12/15 20:48:04;;;;;;;14.77;9.03;;;11.40;99.90;;;;;;10349958;28;20279;-80
2023/12/15 20:53:07;;;;;;;11.77;8.17;;;11.40;99.90;;;;;;10365775;28;20263;-80
2023/12/15 20:58:10;;;;;;;11.67;8.03;;;11.10;99.90;;;;;;10366750;28;20274;-80
2023/12/15 21:03:12;;;;;;;15.57;10.57;;;11.30;99.90;;;;;;10374277;28;20232;-79
2023/12/15 21:08:15;;;;;;;15.83;8.93;;;11.20;99.90;;;;;;10373887;28;20274;-80
2023/12/15 21:13:18;;;;;;;11.37;6.73;;;11.00;99.90;;;;;;10373409;28;20243;-80
2023/12/15 21:18:21;;;;;;;19.07;12.13;;;10.80;99.90;;;;;;10370477;28;20240;-80
2023/12/15 21:23:24;;;;;;;16.37;9.50;;;10.50;99.90;;;;;;10372190;28;20232;-80
2023/12/15 21:28:26;;;;;;;16.23;9.83;;;10.20;99.90;;;;;;10373183;28;20251;-80
2023/12/15 21:33:29;;;;;;;11.87;6.97;;;10.00;99.90;;;;;;10372331;28;20289;-80
2023/12/15 21:38:31;;;;;;;19.43;10.37;;;9.90;99.90;;;;;;10372225;28;20238;-80
2023/12/15 21:43:34;;;;;;;13.60;7.93;;;10.00;99.90;;;;;;10371503;28;20298;-79
2023/12/15 21:48:36;;;;;;;10.00;6.07;;;10.40;99.90;;;;;;10370429;28;20271;-79
2023/12/15 21:53:39;;;;;;;19.60;10.40;;;10.50;99.90;;;;;;10370822;28;20243;-80
2023/12/15 21:58:41;;;;;;;15.50;8.73;;;10.90;99.90;;;;;;10369970;28;20652;-80
2023/12/15 22:03:51;;;;;;;11.37;7.13;;;10.30;99.90;;;;;;10371559;28;20297;-80
2023/12/15 22:08:53;;;;;;;11.20;6.43;;;10.20;99.90;;;;;;10376628;28;20259;-79
2023/12/15 22:13:56;;;;;;;8.13;5.40;;;10.60;99.90;;;;;;10369680;28;20294;-80
2023/12/15 22:18:58;;;;;;;19.03;10.33;;;10.70;99.90;;;;;;10371061;28;20270;-80
2023/12/15 22:24:01;;;;;;;10.47;6.70;;;10.90;99.90;;;;;;10370557;28;20290;-80
2023/12/15 22:29:03;;;;;;;8.30;5.87;;;11.20;99.90;;;;;;10369734;28;20258;-80
2023/12/15 22:34:06;;;;;;;9.00;6.03;;;11.20;99.90;;;;;;10369315;28;20243;-80
2023/12/15 22:39:10;;;;;;;13.77;7.60;;;11.40;99.90;;;;;;10368927;28;20683;-80
2023/12/15 22:44:12;;;;;;;8.17;5.83;;;11.50;99.90;;;;;;10369493;28;20244;-80
2023/12/15 22:49:15;;;;;;;13.03;8.07;;;11.70;99.90;;;;;;10369547;28;20270;-80
2023/12/15 22:54:18;;;;;;;10.63;7.37;;;11.90;99.90;;;;;;10369199;28;20224;-80
2023/12/15 22:59:20;;;;;;;15.13;8.17;;;11.80;99.90;;;;;;10369228;28;20294;-80
2023/12/15 23:04:25;;;;;;;14.17;7.30;;;11.70;99.90;;;;;;10368806;28;20293;-79
2023/12/15 23:09:28;;;;;;;8.83;5.47;;;11.10;99.90;;;;;;10368738;28;20257;-80
2023/12/15 23:14:30;;;;;;;12.23;6.97;;;11.20;99.90;;;;;;10368426;28;20249;-80
2023/12/15 23:19:33;;;;;;;6.37;4.23;;;11.10;99.90;;;;;;10368334;28;20237;-80
2023/12/15 23:24:36;;;;;;;5.03;3.67;;;11.40;99.90;;;;;;10367972;28;20239;-80
2023/12/15 23:29:38;;;;;;;7.27;5.03;;;11.60;99.90;;;;;;10368328;28;20270;-80
2023/12/15 23:34:41;;;;;;;15.20;7.70;;;11.80;99.90;;;;;;10368022;28;20232;-80
2023/12/15 23:39:43;;;;;;;9.37;6.03;;;11.70;99.90;;;;;;10367901;28;20606;-80
2023/12/15 23:44:46;;;;;;;7.83;5.33;;;11.50;99.90;;;;;;10366497;28;20273;-80
2023/12/15 23:49:48;;;;;;;13.67;8.23;;;11.50;99.90;;;;;;10366971;28;20271;-80
2023/12/15 23:54:51;;;;;;;14.93;8.67;;;11.20;99.90;;;;;;10367217;28;20231;-80
2023/12/15 23:59:54;;;;;;;6.70;4.27;;;11.20;99.90;;;;;;10367336;28;20290;-80
